Time;durP1;ratioP1;P1;durP2;ratioP2;P2;SDS_P1;SDS_P2;PMS_P1;PMS_P2;Temp;Humidity;BMP_temperature;BMP_pressure;BME280_temperature;BME280_humidity;BME280_pressure;Samples;Min_cycle;Max_cycle;Signal;HPM_P1;HPM_P2
2021/12/19 00:00:28;;;;;;;3.60;1.60;;;22.30;48.00;;;;;;4993649;28;20049;-60
2021/12/19 00:08:33;;;;;;;2.15;1.80;;;22.20;48.00;;;;;;4994604;28;20489;-60
2021/12/19 00:10:58;;;;;;;2.80;1.80;;;22.20;48.00;;;;;;4993761;28;20044;-60
2021/12/19 00:13:25;;;;;;;4.43;1.60;;;22.20;48.00;;;;;;4993818;28;20034;-60
2021/12/19 00:15:52;;;;;;;2.08;1.58;;;22.20;48.00;;;;;;4993800;28;20380;-60
2021/12/19 00:18:18;;;;;;;4.47;1.75;;;22.20;48.00;;;;;;4994264;28;20042;-59
2021/12/19 00:20:44;;;;;;;3.85;1.83;;;22.10;48.00;;;;;;4993715;28;20065;-60
2021/12/19 00:23:10;;;;;;;5.63;1.70;;;22.10;47.90;;;;;;4993708;28;20371;-59
2021/12/19 00:25:35;;;;;;;3.00;1.60;;;22.10;48.00;;;;;;4993591;28;20046;-59
2021/12/19 00:28:01;;;;;;;3.35;1.30;;;22.10;48.00;;;;;;4994211;28;20049;-60
2021/12/19 00:30:27;;;;;;;3.95;1.75;;;22.10;48.00;;;;;;4993666;28;20093;-60
2021/12/19 00:32:52;;;;;;;6.25;1.40;;;22.10;48.00;;;;;;4994071;28;20048;-60
2021/12/19 00:35:19;;;;;;;3.08;1.20;;;22.00;47.90;;;;;;4993560;28;20166;-60
2021/12/19 00:37:44;;;;;;;2.95;1.60;;;22.00;48.00;;;;;;4995953;28;20054;-60
2021/12/19 00:40:11;;;;;;;7.43;1.45;;;22.00;48.00;;;;;;4997746;28;20053;-60
2021/12/19 00:42:37;;;;;;;2.38;1.67;;;22.00;48.00;;;;;;4997141;28;20034;-60
2021/12/19 00:45:16;;;;;;;3.50;1.48;;;22.00;48.00;;;;;;4997178;28;20053;-60
2021/12/19 00:47:44;;;;;;;4.47;1.27;;;21.90;48.00;;;;;;4995880;28;20045;-60
2021/12/19 00:50:11;;;;;;;2.10;1.50;;;21.90;48.10;;;;;;4997084;28;20050;-60
2021/12/19 00:52:37;;;;;;;2.05;1.10;;;21.90;48.10;;;;;;4996905;28;20038;-60
2021/12/19 00:55:04;;;;;;;2.65;1.42;;;21.90;48.10;;;;;;4996963;28;20081;-60
2021/12/19 00:57:30;;;;;;;5.47;1.70;;;21.90;48.10;;;;;;4996489;28;20088;-60
2021/12/19 00:59:55;;;;;;;1.77;1.30;;;21.90;48.20;;;;;;4996874;28;20046;-60
2021/12/19 01:02:21;;;;;;;1.40;1.20;;;21.90;48.30;;;;;;4997171;28;20042;-60
2021/12/19 01:04:47;;;;;;;1.98;1.40;;;21.90;48.40;;;;;;4996881;28;20406;-60
2021/12/19 01:07:13;;;;;;;1.65;1.23;;;21.80;48.30;;;;;;4996679;28;20046;-60
2021/12/19 01:09:38;;;;;;;3.35;1.38;;;21.80;48.30;;;;;;4996727;28;20053;-61
2021/12/19 01:12:05;;;;;;;2.35;1.50;;;21.80;48.30;;;;;;4997115;28;20121;-60
2021/12/19 01:14:30;;;;;;;2.40;1.00;;;21.80;48.30;;;;;;4996821;28;20073;-61
2021/12/19 01:16:56;;;;;;;2.42;1.20;;;21.80;48.30;;;;;;4996314;28;20085;-60
2021/12/19 01:19:23;;;;;;;2.22;1.27;;;21.70;48.20;;;;;;4997410;28;20042;-60
2021/12/19 01:21:50;;;;;;;4.70;1.35;;;21.70;48.20;;;;;;4996842;28;20058;-60
2021/12/19 01:24:16;;;;;;;3.08;1.27;;;21.70;48.30;;;;;;4996456;28;20169;-59
2021/12/19 01:26:42;;;;;;;2.55;1.00;;;21.70;48.30;;;;;;4996214;28;20458;-60
2021/12/19 01:29:10;;;;;;;1.73;1.00;;;21.70;48.30;;;;;;4995021;28;20398;-59
2021/12/19 01:31:36;;;;;;;1.52;1.00;;;21.70;48.30;;;;;;4996696;28;20042;-60
2021/12/19 01:34:01;;;;;;;3.28;1.52;;;21.60;48.30;;;;;;4996636;28;20053;-60
2021/12/19 01:36:27;;;;;;;1.58;1.10;;;21.60;48.30;;;;;;4996177;28;20479;-60
2021/12/19 01:38:52;;;;;;;3.53;1.10;;;21.60;48.40;;;;;;4996081;28;20462;-60
2021/12/19 01:41:18;;;;;;;1.33;0.90;;;21.60;48.50;;;;;;4996583;28;20042;-60
2021/12/19 01:43:44;;;;;;;2.65;1.27;;;21.60;48.40;;;;;;4995748;28;20038;-60
2021/12/19 01:46:10;;;;;;;1.85;1.20;;;21.60;48.50;;;;;;4996410;28;20070;-60
2021/12/19 01:48:36;;;;;;;0.93;0.80;;;21.60;48.50;;;;;;4995369;28;20038;-59
2021/12/19 01:51:01;;;;;;;3.42;1.20;;;21.60;48.40;;;;;;4996309;28;20038;-60
2021/12/19 01:53:28;;;;;;;1.25;0.95;;;21.50;48.40;;;;;;4995797;28;20034;-60
2021/12/19 01:55:54;;;;;;;1.42;1.00;;;21.50;48.40;;;;;;4995817;28;20054;-60
2021/12/19 01:58:20;;;;;;;1.20;1.10;;;21.50;48.50;;;;;;4995904;28;20488;-60
2021/12/19 02:00:51;;;;;;;1.10;1.00;;;21.50;48.40;;;;;;4995692;28;20038;-60
2021/12/19 02:03:17;;;;;;;0.75;0.75;;;21.50;48.50;;;;;;4996177;28;20088;-61
2021/12/19 02:05:43;;;;;;;2.78;0.90;;;21.50;48.50;;;;;;4995650;28;20078;-59
2021/12/19 02:08:10;;;;;;;1.00;0.88;;;21.50;48.50;;;;;;4994081;28;20092;-60
2021/12/19 02:10:37;;;;;;;0.98;0.85;;;21.50;48.60;;;;;;4995495;28;20046;-60
2021/12/19 02:13:04;;;;;;;1.00;0.80;;;21.40;48.50;;;;;;4994297;28;20050;-59
2021/12/19 02:15:31;;;;;;;1.95;0.80;;;21.40;48.70;;;;;;4995145;28;20125;-60
2021/12/19 02:18:01;;;;;;;0.93;0.82;;;21.40;48.80;;;;;;4994194;28;20050;-59
2021/12/19 02:20:38;;;;;;;1.00;0.73;;;21.40;48.90;;;;;;4995394;28;20042;-60
2021/12/19 02:23:05;;;;;;;2.00;1.00;;;21.40;48.90;;;;;;4993922;28;20105;-59
2021/12/19 02:25:32;;;;;;;0.80;0.70;;;21.40;49.10;;;;;;4993943;28;20046;-59
2021/12/19 02:27:58;;;;;;;1.60;1.05;;;21.40;49.10;;;;;;4995670;28;20453;-60
2021/12/19 02:30:24;;;;;;;1.55;0.98;;;21.40;49.20;;;;;;4993977;28;20042;-59
2021/12/19 02:32:50;;;;;;;0.80;0.70;;;21.40;49.10;;;;;;4995406;28;20034;-59
2021/12/19 02:35:21;;;;;;;2.15;0.93;;;21.30;49.10;;;;;;4995089;28;20068;-59
2021/12/19 02:38:27;;;;;;;1.35;0.70;;;21.30;49.20;;;;;;4995151;28;20118;-59
2021/12/19 02:48:56;;;;;;;1.23;0.63;;;21.30;49.20;;;;;;4993820;28;20051;-59
2021/12/19 02:51:23;;;;;;;1.92;0.80;;;21.30;49.10;;;;;;4978002;28;20382;-60
2021/12/19 02:53:49;;;;;;;1.35;0.60;;;21.30;49.10;;;;;;4995564;28;20042;-59
2021/12/19 02:56:14;;;;;;;0.88;0.70;;;21.20;49.10;;;;;;4993494;28;20484;-59
2021/12/19 02:58:43;;;;;;;1.23;0.70;;;21.20;49.10;;;;;;4993429;28;20336;-60
2021/12/19 03:01:20;;;;;;;0.60;0.60;;;21.20;49.10;;;;;;4992346;28;20046;-60
2021/12/19 03:03:46;;;;;;;0.63;0.60;;;21.20;49.10;;;;;;4994397;28;20466;-59
2021/12/19 03:06:12;;;;;;;1.20;0.45;;;21.20;49.70;;;;;;4994544;28;20054;-60
2021/12/19 03:08:44;;;;;;;1.05;0.70;;;21.20;49.00;;;;;;4994518;28;20050;-59
2021/12/19 03:19:22;;;;;;;1.25;0.50;;;21.10;49.00;;;;;;4994069;28;20480;-60
2021/12/19 03:21:48;;;;;;;0.40;0.30;;;21.10;49.00;;;;;;4994286;28;20050;-59
2021/12/19 03:24:13;;;;;;;0.45;0.43;;;21.10;49.10;;;;;;4994268;28;20061;-59
2021/12/19 03:26:39;;;;;;;0.70;0.50;;;21.10;49.10;;;;;;4993175;28;20046;-59
2021/12/19 03:29:05;;;;;;;0.63;0.60;;;21.10;49.10;;;;;;4994228;28;20064;-59
2021/12/19 03:31:31;;;;;;;1.05;0.50;;;21.10;49.10;;;;;;4994083;28;20038;-59
2021/12/19 03:33:57;;;;;;;0.55;0.40;;;21.10;49.10;;;;;;4994658;28;20046;-59
2021/12/19 03:36:22;;;;;;;0.47;0.43;;;21.10;49.10;;;;;;4993840;28;20536;-60
2021/12/19 03:38:49;;;;;;;1.10;0.40;;;21.10;49.00;;;;;;4994359;28;20042;-60
2021/12/19 03:41:20;;;;;;;1.55;0.40;;;21.00;49.00;;;;;;4994204;28;20068;-60
2021/12/19 03:43:46;;;;;;;0.80;0.30;;;21.10;49.00;;;;;;4994100;28;20049;-60
2021/12/19 03:46:12;;;;;;;0.50;0.30;;;21.00;49.00;;;;;;4993834;28;20208;-60
2021/12/19 03:48:38;;;;;;;0.75;0.22;;;21.00;49.00;;;;;;4994037;28;20046;-60
2021/12/19 03:51:04;;;;;;;1.27;0.57;;;21.10;49.00;;;;;;4993917;28;20078;-60
2021/12/19 03:53:29;;;;;;;0.50;0.50;;;21.00;49.00;;;;;;4986467;28;20159;-60
2021/12/19 03:55:55;;;;;;;0.60;0.40;;;21.00;49.00;;;;;;4974589;28;20041;-60
2021/12/19 03:58:21;;;;;;;0.63;0.40;;;21.00;49.00;;;;;;4974536;28;20089;-60
2021/12/19 04:00:48;;;;;;;0.38;0.30;;;21.00;49.00;;;;;;4974465;28;20051;-59
2021/12/19 04:03:19;;;;;;;0.77;0.40;;;21.00;49.00;;;;;;4974958;28;20043;-59
2021/12/19 04:05:47;;;;;;;0.40;0.40;;;21.00;49.00;;;;;;4974515;28;20043;-60
2021/12/19 04:08:12;;;;;;;0.50;0.40;;;21.00;49.00;;;;;;4974371;28;20127;-60
2021/12/19 04:10:38;;;;;;;0.57;0.50;;;21.00;48.90;;;;;;4974629;28;20035;-60
2021/12/19 04:13:04;;;;;;;0.32;0.28;;;20.90;48.90;;;;;;4977302;28;20050;-60
2021/12/19 04:15:30;;;;;;;0.30;0.30;;;20.90;48.90;;;;;;4978210;28;20413;-60
2021/12/19 04:17:56;;;;;;;0.40;0.40;;;20.90;48.90;;;;;;4977242;28;20101;-59
2021/12/19 04:20:22;;;;;;;0.52;0.40;;;20.90;48.90;;;;;;4977938;28;20047;-60
2021/12/19 04:22:50;;;;;;;0.40;0.40;;;20.90;48.90;;;;;;4978228;28;20058;-60
2021/12/19 04:25:16;;;;;;;0.45;0.40;;;20.90;48.90;;;;;;4978054;28;20081;-60
2021/12/19 04:27:42;;;;;;;0.57;0.50;;;20.90;48.90;;;;;;4976963;28;20066;-60
2021/12/19 04:30:11;;;;;;;0.38;0.35;;;20.90;48.80;;;;;;4978003;28;20094;-60
2021/12/19 04:32:42;;;;;;;0.85;0.30;;;20.80;48.80;;;;;;4977836;28;20458;-60
2021/12/19 04:35:09;;;;;;;0.50;0.40;;;20.90;48.90;;;;;;4976859;28;20126;-60
2021/12/19 04:56:12;;;;;;;0.20;0.20;;;20.80;48.80;;;;;;4977551;28;20047;-60
2021/12/19 05:01:10;;;;;;;0.85;0.30;;;20.80;48.90;;;;;;4977382;28;20061;-60
2021/12/19 05:14:22;;;;;;;0.20;0.20;;;20.70;48.90;;;;;;4977192;28;20051;-60
2021/12/19 05:16:48;;;;;;;0.10;0.10;;;20.70;48.90;;;;;;4977935;28;20039;-60
2021/12/19 05:19:31;;;;;;;0.10;0.10;;;20.70;48.90;;;;;;4977069;28;20051;-60
2021/12/19 05:22:01;;;;;;;0.15;0.10;;;20.70;48.90;;;;;;4976956;28;20055;-59
2021/12/19 05:27:07;;;;;;;0.32;0.20;;;20.70;48.90;;;;;;4976908;28;20049;-60
2021/12/19 05:29:35;;;;;;;0.20;0.20;;;20.70;48.80;;;;;;4976849;28;20055;-60
2021/12/19 05:32:01;;;;;;;0.10;0.10;;;20.70;48.80;;;;;;4976773;28;20481;-60
2021/12/19 05:34:28;;;;;;;0.22;0.10;;;20.70;48.80;;;;;;4976760;28;20038;-59
2021/12/19 05:47:37;;;;;;;0.10;0.10;;;20.60;48.80;;;;;;4977349;28;20050;-60
2021/12/19 05:50:05;;;;;;;0.28;0.28;;;20.60;48.80;;;;;;4976552;28;20043;-60
2021/12/19 05:52:30;;;;;;;0.10;0.10;;;20.60;48.90;;;;;;4976865;28;20042;-60
2021/12/19 05:54:56;;;;;;;0.45;0.15;;;20.60;49.00;;;;;;4976339;28;20042;-60
2021/12/19 05:57:22;;;;;;;0.20;0.20;;;20.60;49.00;;;;;;4976408;28;20051;-60
2021/12/19 05:59:48;;;;;;;0.10;0.10;;;20.60;49.10;;;;;;4976287;28;20359;-60
2021/12/19 06:02:13;;;;;;;0.10;0.10;;;20.60;49.00;;;;;;4976343;28;20117;-60
2021/12/19 06:04:39;;;;;;;0.10;0.10;;;20.60;49.10;;;;;;4976254;28;20038;-60
2021/12/19 06:07:04;;;;;;;1.13;0.10;;;20.60;49.10;;;;;;4975966;28;20088;-60
2021/12/19 06:09:30;;;;;;;0.38;0.10;;;20.60;49.10;;;;;;4976127;28;20225;-60
2021/12/19 06:11:56;;;;;;;0.22;0.10;;;20.60;49.20;;;;;;4975042;28;20057;-60
2021/12/19 06:14:22;;;;;;;0.77;0.20;;;20.60;49.30;;;;;;4976028;28;20355;-60
2021/12/19 06:16:48;;;;;;;0.10;0.10;;;20.60;49.30;;;;;;4974784;28;20047;-60
2021/12/19 06:19:14;;;;;;;0.17;0.17;;;20.60;49.30;;;;;;4976446;28;20046;-61
2021/12/19 06:21:39;;;;;;;0.10;0.10;;;20.60;49.40;;;;;;4975784;28;20141;-60
2021/12/19 06:24:05;;;;;;;0.20;0.10;;;20.60;49.50;;;;;;4975950;28;20054;-60
2021/12/19 06:26:35;;;;;;;0.10;0.10;;;20.50;49.50;;;;;;4975989;28;20042;-61
2021/12/19 06:29:02;;;;;;;0.23;0.23;;;20.60;49.60;;;;;;4976147;28;20177;-60
2021/12/19 06:31:28;;;;;;;0.13;0.08;;;20.50;49.60;;;;;;4976383;28;20051;-60
2021/12/19 06:33:53;;;;;;;0.30;0.10;;;20.50;49.70;;;;;;4974121;28;20080;-60
2021/12/19 06:36:19;;;;;;;1.33;0.10;;;20.50;49.70;;;;;;4975501;28;20053;-60
2021/12/19 06:38:44;;;;;;;2.83;0.50;;;20.50;49.80;;;;;;4974315;28;20051;-59
2021/12/19 06:41:10;;;;;;;3.33;0.47;;;20.50;49.90;;;;;;4958496;28;20045;-60
2021/12/19 06:43:36;;;;;;;0.73;0.30;;;20.50;49.90;;;;;;4975503;28;20035;-60
2021/12/19 06:46:01;;;;;;;1.08;0.15;;;20.50;49.90;;;;;;4975536;28;20418;-60
2021/12/19 06:48:27;;;;;;;2.17;0.30;;;20.50;49.90;;;;;;4975962;28;20123;-60
2021/12/19 06:50:53;;;;;;;1.00;0.17;;;20.50;50.00;;;;;;4975781;28;20035;-60
2021/12/19 06:53:19;;;;;;;1.38;0.38;;;20.40;49.90;;;;;;4975326;28;20039;-60
2021/12/19 06:55:44;;;;;;;1.45;0.40;;;20.40;49.90;;;;;;4975338;28;20051;-60
2021/12/19 06:58:10;;;;;;;1.40;0.52;;;20.40;49.80;;;;;;4975769;28;20046;-61
2021/12/19 07:00:36;;;;;;;2.10;0.45;;;20.40;49.80;;;;;;4973674;28;20050;-61
2021/12/19 07:03:01;;;;;;;1.48;0.50;;;20.40;49.80;;;;;;4975288;28;20037;-60
2021/12/19 07:05:27;;;;;;;0.68;0.47;;;20.40;49.80;;;;;;4975103;28;20149;-61
2021/12/19 07:07:52;;;;;;;1.27;0.40;;;20.40;49.80;;;;;;4975081;28;20532;-60
2021/12/19 07:10:18;;;;;;;1.45;0.40;;;20.40;49.80;;;;;;4973807;28;20090;-60
2021/12/19 07:12:43;;;;;;;1.75;0.63;;;20.40;49.80;;;;;;4974977;28;20046;-60
2021/12/19 07:15:10;;;;;;;1.65;0.50;;;20.40;49.80;;;;;;4974978;28;20039;-61
2021/12/19 07:17:36;;;;;;;2.40;0.80;;;20.40;49.80;;;;;;4973796;28;20042;-61
2021/12/19 07:20:03;;;;;;;1.33;0.52;;;20.40;49.80;;;;;;4974914;28;20046;-60
2021/12/19 07:22:28;;;;;;;1.45;0.70;;;20.40;49.80;;;;;;4975054;28;20055;-61
2021/12/19 07:24:54;;;;;;;1.35;0.60;;;20.40;49.80;;;;;;4974824;28;20098;-60
2021/12/19 07:27:19;;;;;;;1.20;0.60;;;20.40;50.50;;;;;;4974712;28;20039;-60
2021/12/19 07:29:45;;;;;;;2.47;0.68;;;20.30;49.70;;;;;;4973820;28;20046;-60
2021/12/19 07:32:11;;;;;;;1.35;0.57;;;20.30;49.80;;;;;;4973666;28;20373;-60
2021/12/19 07:34:38;;;;;;;4.00;0.82;;;20.40;50.00;;;;;;4974752;28;20078;-60
2021/12/19 07:37:04;;;;;;;4.30;0.85;;;20.40;50.10;;;;;;4975419;28;20486;-60
2021/12/19 07:41:58;;;;;;;2.35;0.70;;;20.40;50.20;;;;;;4974737;28;20479;-60
2021/12/19 07:44:24;;;;;;;1.65;0.80;;;20.40;50.20;;;;;;4974627;28;20078;-60
2021/12/19 07:46:50;;;;;;;2.35;0.80;;;20.40;50.30;;;;;;4974091;28;20125;-61
2021/12/19 07:49:16;;;;;;;2.30;0.90;;;20.40;51.00;;;;;;4974675;28;20050;-60
2021/12/19 07:51:42;;;;;;;2.22;1.00;;;20.40;50.30;;;;;;4974835;28;20037;-60
2021/12/19 07:54:08;;;;;;;3.28;0.90;;;20.40;50.30;;;;;;4974604;28;20118;-60
2021/12/19 07:56:34;;;;;;;2.72;1.10;;;20.40;50.30;;;;;;4974552;28;20082;-60
2021/12/19 07:59:00;;;;;;;3.83;1.13;;;20.40;50.40;;;;;;4973342;28;20043;-61
2021/12/19 08:01:26;;;;;;;1.73;0.98;;;20.50;50.50;;;;;;4974604;28;20030;-61
2021/12/19 08:03:51;;;;;;;1.58;1.00;;;20.40;50.40;;;;;;4974606;28;20074;-61
2021/12/19 08:06:17;;;;;;;2.90;1.15;;;20.40;50.40;;;;;;4974195;28;20071;-61
2021/12/19 08:08:49;;;;;;;2.15;1.17;;;20.50;50.50;;;;;;4974490;28;20054;-61
2021/12/19 08:13:59;;;;;;;4.22;1.30;;;20.50;50.40;;;;;;4973765;28;20039;-61
2021/12/19 08:16:25;;;;;;;2.95;1.33;;;20.50;50.40;;;;;;4974408;28;20553;-61
2021/12/19 08:18:52;;;;;;;3.30;1.30;;;20.50;50.40;;;;;;4974359;28;20127;-61
2021/12/19 08:21:18;;;;;;;1.67;1.10;;;20.50;50.40;;;;;;4974391;28;20043;-61
2021/12/19 08:23:44;;;;;;;2.10;1.33;;;20.50;50.40;;;;;;4974854;28;20054;-61
2021/12/19 08:26:10;;;;;;;2.35;1.40;;;20.50;50.30;;;;;;4974298;28;20042;-60
2021/12/19 08:28:35;;;;;;;2.63;1.25;;;20.50;50.30;;;;;;4974340;28;20074;-61
2021/12/19 08:31:02;;;;;;;3.78;1.60;;;20.60;50.40;;;;;;4973018;28;20344;-58
2021/12/19 08:33:27;;;;;;;4.03;1.58;;;20.60;50.40;;;;;;4974630;28;20039;-58
2021/12/19 08:35:53;;;;;;;4.90;1.70;;;20.60;50.50;;;;;;4974049;28;20366;-59
2021/12/19 08:38:18;;;;;;;4.60;1.70;;;20.60;50.40;;;;;;4974015;28;20129;-58
2021/12/19 08:40:46;;;;;;;2.45;1.42;;;20.60;50.40;;;;;;4973965;28;20042;-58
2021/12/19 08:43:12;;;;;;;2.03;1.42;;;20.60;50.40;;;;;;4973932;28;20035;-58
2021/12/19 08:45:39;;;;;;;2.03;1.40;;;20.60;50.40;;;;;;4973290;28;20126;-59
2021/12/19 08:48:05;;;;;;;3.45;1.33;;;20.60;50.30;;;;;;4973952;28;20050;-58
2021/12/19 08:50:31;;;;;;;3.97;1.50;;;20.60;50.30;;;;;;4974425;28;20043;-59
2021/12/19 08:52:56;;;;;;;2.22;1.40;;;20.60;50.30;;;;;;4973509;28;20411;-58
2021/12/19 08:55:22;;;;;;;4.13;1.80;;;20.60;50.30;;;;;;4973867;28;20047;-58
2021/12/19 08:57:48;;;;;;;2.55;1.40;;;20.60;50.20;;;;;;4973932;28;20047;-58
2021/12/19 09:00:16;;;;;;;4.70;1.15;;;20.60;50.10;;;;;;4976705;28;20378;-58
2021/12/19 09:02:44;;;;;;;4.05;1.20;;;20.60;50.50;;;;;;4977350;28;20102;-58
2021/12/19 09:05:10;;;;;;;3.55;1.50;;;20.60;50.40;;;;;;4977094;28;20462;-58
2021/12/19 09:07:36;;;;;;;11.05;1.60;;;20.60;50.40;;;;;;4992909;28;20038;-59
2021/12/19 09:12:27;;;;;;;4.30;1.50;;;20.60;50.40;;;;;;5021744;23;20140;-59
2021/12/19 09:14:54;;;;;;;4.75;1.65;;;20.60;50.50;;;;;;5014671;28;20508;-59
2021/12/19 09:17:19;;;;;;;4.38;1.52;;;20.70;50.60;;;;;;5016983;28;20361;-59
2021/12/19 09:19:45;;;;;;;2.78;1.35;;;20.60;50.50;;;;;;5016030;28;24249;-59
2021/12/19 09:22:11;;;;;;;2.63;1.50;;;20.60;50.50;;;;;;5014735;28;20041;-60
2021/12/19 09:24:37;;;;;;;3.40;1.23;;;20.60;50.60;;;;;;5013764;28;20494;-59
2021/12/19 09:27:03;;;;;;;2.53;1.40;;;20.60;50.60;;;;;;5015518;28;20482;-60
2021/12/19 09:29:30;;;;;;;3.55;1.10;;;20.60;50.60;;;;;;5013442;28;20150;-59
2021/12/19 09:31:56;;;;;;;2.22;1.25;;;20.70;50.70;;;;;;5015530;28;20037;-57
2021/12/19 09:34:23;;;;;;;2.63;1.23;;;20.70;50.70;;;;;;5014261;28;20389;-61
2021/12/19 09:36:49;;;;;;;1.95;1.30;;;20.70;50.70;;;;;;5012349;28;20075;-60
2021/12/19 09:39:15;;;;;;;3.47;1.30;;;20.60;50.60;;;;;;5015904;28;20433;-59
2021/12/19 09:41:44;;;;;;;2.53;1.50;;;20.70;50.60;;;;;;5019141;28;20482;-60
2021/12/19 09:44:13;;;;;;;2.08;1.40;;;20.70;50.60;;;;;;5013956;28;20056;-60
2021/12/19 09:46:41;;;;;;;3.65;1.35;;;20.60;51.40;;;;;;5014865;28;26256;-60
2021/12/19 09:49:09;;;;;;;2.75;1.35;;;20.70;50.60;;;;;;5015334;28;20045;-60
2021/12/19 09:51:35;;;;;;;3.65;1.60;;;20.70;50.70;;;;;;5014004;28;20049;-60
2021/12/19 09:54:01;;;;;;;2.45;1.40;;;20.70;50.80;;;;;;5017330;28;20037;-59
2021/12/19 09:56:27;;;;;;;3.78;1.50;;;20.70;50.80;;;;;;5013270;28;20045;-59
2021/12/19 09:58:53;;;;;;;6.57;1.70;;;20.70;51.00;;;;;;5018291;28;20038;-60
2021/12/19 10:01:19;;;;;;;4.82;1.83;;;20.70;51.20;;;;;;5014401;28;34004;-60
2021/12/19 10:03:44;;;;;;;3.47;1.85;;;20.70;51.20;;;;;;5016330;28;20045;-60
2021/12/19 10:06:13;;;;;;;4.60;2.20;;;20.70;51.30;;;;;;5014746;28;20496;-59
2021/12/19 10:08:39;;;;;;;3.63;1.85;;;20.70;51.50;;;;;;5017180;28;20053;-60
2021/12/19 10:11:13;;;;;;;2.90;1.63;;;20.70;51.50;;;;;;4995017;28;20555;-61
2021/12/19 10:13:39;;;;;;;4.25;1.67;;;20.70;51.60;;;;;;5013241;28;20151;-59
2021/12/19 10:16:29;;;;;;;4.03;1.67;;;20.70;51.60;;;;;;5013373;28;31748;-59
2021/12/19 10:18:57;;;;;;;3.90;1.80;;;20.80;51.70;;;;;;5013522;28;20377;-59
2021/12/19 10:21:23;;;;;;;6.07;1.45;;;20.70;51.70;;;;;;5015260;28;20378;-60
2021/12/19 10:23:49;;;;;;;5.43;1.83;;;20.80;51.70;;;;;;5015025;28;20056;-59
2021/12/19 10:26:15;;;;;;;2.50;1.50;;;20.70;51.70;;;;;;5012394;28;20050;-60
2021/12/19 10:28:55;;;;;;;5.03;1.95;;;20.80;51.80;;;;;;5013977;28;20069;-59
2021/12/19 10:31:25;;;;;;;4.15;1.58;;;20.80;52.00;;;;;;5014822;28;20124;-60
2021/12/19 10:33:51;;;;;;;4.65;1.60;;;20.80;52.00;;;;;;5010704;28;20042;-60
2021/12/19 10:36:19;;;;;;;3.92;1.27;;;20.80;51.80;;;;;;5013737;28;20045;-60
2021/12/19 10:38:51;;;;;;;8.05;2.08;;;20.80;52.00;;;;;;5014513;28;20037;-59
2021/12/19 10:41:23;;;;;;;6.20;1.50;;;20.80;52.00;;;;;;5012756;28;20109;-59
2021/12/19 10:44:03;;;;;;;3.67;1.58;;;20.90;52.10;;;;;;5009965;28;21870;-59
2021/12/19 10:46:34;;;;;;;3.58;1.30;;;20.90;52.00;;;;;;5011498;28;20042;-60
2021/12/19 10:49:00;;;;;;;5.70;1.45;;;20.90;51.90;;;;;;5014937;28;20070;-59
2021/12/19 10:51:29;;;;;;;31.35;3.42;;;20.90;52.00;;;;;;5011908;28;20041;-59
2021/12/19 10:54:00;;;;;;;8.32;1.60;;;20.90;52.00;;;;;;5012667;28;20076;-60
2021/12/19 10:56:31;;;;;;;11.25;1.90;;;20.90;52.00;;;;;;5012011;28;20081;-59
2021/12/19 10:58:59;;;;;;;6.50;1.90;;;20.90;51.90;;;;;;5010738;28;22508;-59
2021/12/19 11:01:29;;;;;;;4.55;1.63;;;20.90;51.80;;;;;;5015191;28;20080;-59
2021/12/19 11:03:55;;;;;;;6.70;2.00;;;20.90;51.80;;;;;;5010844;28;20060;-59
2021/12/19 11:06:34;;;;;;;7.20;1.70;;;20.90;51.80;;;;;;5011959;28;20033;-58
2021/12/19 11:09:05;;;;;;;5.07;1.50;;;20.90;51.70;;;;;;5014213;28;20045;-58
2021/12/19 11:11:47;;;;;;;5.00;1.50;;;21.00;51.70;;;;;;5010351;28;34099;-57
2021/12/19 11:14:16;;;;;;;3.47;1.42;;;21.00;51.70;;;;;;5013110;28;20559;-60
2021/12/19 11:16:42;;;;;;;4.72;1.52;;;21.00;51.60;;;;;;5012686;28;20523;-58
2021/12/19 11:19:08;;;;;;;3.60;1.27;;;21.00;51.60;;;;;;5014268;28;20104;-58
2021/12/19 11:21:35;;;;;;;4.43;1.55;;;20.90;51.70;;;;;;5011830;28;20045;-60
2021/12/19 11:24:03;;;;;;;5.05;1.30;;;20.90;51.70;;;;;;5015001;28;20524;-61
2021/12/19 11:26:29;;;;;;;4.93;1.98;;;20.90;51.60;;;;;;5011598;28;31622;-61
2021/12/19 11:28:56;;;;;;;4.03;1.67;;;20.90;51.70;;;;;;5010148;28;20076;-61
2021/12/19 11:31:26;;;;;;;4.45;1.40;;;20.90;51.70;;;;;;5014914;28;20485;-60
2021/12/19 11:34:00;;;;;;;3.60;1.40;;;20.80;51.50;;;;;;5013984;28;20589;-60
2021/12/19 11:36:31;;;;;;;3.83;1.42;;;20.80;51.50;;;;;;5017434;28;20915;-60
2021/12/19 11:39:00;;;;;;;7.68;1.50;;;20.80;51.60;;;;;;5014358;28;20044;-60
2021/12/19 11:41:27;;;;;;;3.47;1.60;;;20.80;51.60;;;;;;5013933;28;20050;-61
2021/12/19 11:43:55;;;;;;;5.68;1.33;;;20.80;51.60;;;;;;5015783;28;20439;-61
2021/12/19 11:46:42;;;;;;;4.35;1.75;;;20.80;51.70;;;;;;5013322;28;20045;-60
2021/12/19 11:49:27;;;;;;;6.05;1.80;;;20.80;51.80;;;;;;5016511;28;20052;-60
2021/12/19 11:52:22;;;;;;;4.82;1.42;;;20.80;51.90;;;;;;5014701;28;20037;-61
2021/12/19 11:55:14;;;;;;;5.28;1.50;;;20.80;52.00;;;;;;5014382;28;32037;-62
2021/12/19 11:58:09;;;;;;;4.53;2.13;;;20.80;52.00;;;;;;5009306;28;20049;-60
2021/12/19 12:00:51;;;;;;;3.67;1.60;;;20.80;52.10;;;;;;5015188;28;20145;-60
2021/12/19 12:03:18;;;;;;;7.35;1.80;;;20.80;52.20;;;;;;5013371;28;20051;-60
2021/12/19 12:05:46;;;;;;;4.43;1.63;;;20.70;52.20;;;;;;5013012;28;20048;-59
2021/12/19 12:08:14;;;;;;;6.72;1.45;;;20.80;52.40;;;;;;5012853;28;20045;-58
2021/12/19 12:10:52;;;;;;;6.50;1.83;;;20.80;52.40;;;;;;5014792;28;20157;-61
2021/12/19 12:13:29;;;;;;;6.75;1.50;;;20.80;52.30;;;;;;5014347;28;20053;-59
2021/12/19 12:16:08;;;;;;;4.30;1.77;;;20.80;52.30;;;;;;5012425;28;20475;-60
2021/12/19 12:18:38;;;;;;;5.45;1.50;;;20.80;52.40;;;;;;5013072;28;20124;-59
2021/12/19 12:21:34;;;;;;;6.40;1.80;;;20.70;52.50;;;;;;5011741;28;20052;-59
2021/12/19 12:24:05;;;;;;;6.30;1.70;;;20.80;52.40;;;;;;5012109;28;20045;-59
2021/12/19 12:27:19;;;;;;;5.35;1.52;;;20.80;52.50;;;;;;5012650;28;20101;-59
2021/12/19 12:29:24;;;;;;;6.03;1.75;;;20.80;52.40;;;;;;5006524;28;20374;-59
2021/12/19 12:31:51;;;;;;;6.18;1.67;;;20.80;52.40;;;;;;5014949;28;20041;-60
2021/12/19 12:34:17;;;;;;;5.70;1.80;;;20.80;52.30;;;;;;5016394;28;20041;-59
2021/12/19 12:36:44;;;;;;;4.18;1.20;;;20.70;52.10;;;;;;5017466;28;22050;-60
2021/12/19 12:39:19;;;;;;;8.35;1.35;;;20.80;52.20;;;;;;5016943;28;20497;-60
2021/12/19 12:44:13;;;;;;;2.53;1.38;;;20.80;52.00;;;;;;5017875;28;20049;-60
2021/12/19 12:46:39;;;;;;;4.40;1.70;;;20.80;52.00;;;;;;5015125;28;20390;-59
2021/12/19 12:49:07;;;;;;;3.22;1.50;;;20.80;52.00;;;;;;5015179;28;20089;-60
2021/12/19 12:51:35;;;;;;;3.50;1.42;;;20.80;51.80;;;;;;5014375;28;32392;-60
2021/12/19 12:54:08;;;;;;;2.45;1.55;;;20.80;51.80;;;;;;5015068;28;20034;-61
2021/12/19 12:56:39;;;;;;;3.25;1.63;;;20.80;51.80;;;;;;5015931;28;20037;-60
2021/12/19 12:59:05;;;;;;;4.55;1.80;;;20.80;51.70;;;;;;5014928;28;20073;-59
2021/12/19 13:01:36;;;;;;;4.07;1.48;;;20.80;51.70;;;;;;5014861;28;20828;-59
2021/12/19 13:04:13;;;;;;;4.43;1.85;;;20.80;51.60;;;;;;5011663;28;20063;-59
2021/12/19 13:06:46;;;;;;;3.83;1.70;;;20.80;51.60;;;;;;5015798;28;20090;-59
2021/12/19 13:09:18;;;;;;;3.17;1.83;;;20.80;51.60;;;;;;5014051;28;20072;-59
2021/12/19 13:11:48;;;;;;;5.22;1.85;;;20.90;51.70;;;;;;5018554;28;20053;-59
2021/12/19 13:14:20;;;;;;;10.88;2.40;;;20.90;51.60;;;;;;5015025;28;20046;-59
2021/12/19 13:16:53;;;;;;;7.65;2.10;;;20.90;51.70;;;;;;5017061;28;20431;-59
2021/12/19 13:19:42;;;;;;;6.00;2.10;;;20.90;51.60;;;;;;5015668;28;21840;-60
2021/12/19 13:22:09;;;;;;;4.60;1.60;;;21.00;51.60;;;;;;5016557;28;20046;-60
2021/12/19 13:24:35;;;;;;;6.38;1.77;;;21.00;51.60;;;;;;5016181;28;20089;-60
2021/12/19 13:27:25;;;;;;;9.80;2.40;;;21.00;51.50;;;;;;5014755;28;20453;-60
2021/12/19 13:30:03;;;;;;;8.80;2.15;;;21.00;51.50;;;;;;5014665;28;20045;-60
2021/12/19 13:32:31;;;;;;;6.05;1.67;;;21.00;51.50;;;;;;5015560;28;20179;-60
2021/12/19 13:34:58;;;;;;;7.00;1.92;;;21.00;51.50;;;;;;5013197;28;20042;-60
2021/12/19 13:37:24;;;;;;;5.35;1.85;;;21.00;51.40;;;;;;5017680;28;20048;-60
2021/12/19 13:40:04;;;;;;;13.40;2.55;;;21.00;51.30;;;;;;5014277;28;20496;-60
2021/12/19 13:42:38;;;;;;;7.28;2.38;;;21.10;51.40;;;;;;5028596;28;20040;-60
2021/12/19 13:45:32;;;;;;;14.40;2.50;;;21.10;51.50;;;;;;5015050;28;20136;-60
2021/12/19 13:48:07;;;;;;;11.43;3.13;;;21.10;51.60;;;;;;5015224;28;20124;-60
2021/12/19 13:50:39;;;;;;;10.35;2.40;;;21.10;51.80;;;;;;5010966;28;20204;-60
2021/12/19 13:53:06;;;;;;;11.35;2.95;;;21.10;52.00;;;;;;5016602;28;20100;-60
2021/12/19 13:55:52;;;;;;;12.90;2.55;;;21.20;52.00;;;;;;5015592;28;20056;-60
2021/12/19 13:58:19;;;;;;;9.65;3.00;;;21.20;52.10;;;;;;5016873;28;20095;-60
2021/12/19 14:00:50;;;;;;;11.18;3.08;;;21.20;52.10;;;;;;5009066;28;20034;-60
2021/12/19 14:03:36;;;;;;;18.27;2.90;;;21.20;52.20;;;;;;5013328;28;29118;-60
2021/12/19 14:06:01;;;;;;;11.32;3.17;;;21.30;52.30;;;;;;5012734;28;20787;-59
2021/12/19 14:08:30;;;;;;;10.93;3.05;;;21.20;52.10;;;;;;5017922;28;20051;-60